METAR Data
IDs: Format: Raw Decoded Include TAF

Data at: 0844 UTC 03 Aug 2021

KIZA 030835Z AUTO 00000KT 10SM CLR 12/11 A3001 RMK AO2
KIZA 030815Z AUTO 00000KT 10SM CLR 12/11 A3002 RMK AO2
KIZA 030755Z AUTO 00000KT 10SM CLR 12/11 A3002 RMK AO2
KIZA 030735Z AUTO 00000KT 10SM CLR 13/12 A3003 RMK AO2
KIZA 030715Z AUTO 00000KT 10SM CLR 13/12 A3003 RMK AO2
KIZA 030655Z AUTO 00000KT 10SM CLR 13/12 A3004 RMK AO2
KIZA 030635Z AUTO 00000KT 10SM CLR 13/12 A3004 RMK AO2
KIZA 030615Z AUTO 23003KT 10SM CLR 13/12 A3004 RMK AO2
KIZA 030555Z AUTO 22004KT 10SM CLR 14/12 A3005 RMK AO2
KIZA 030535Z AUTO 22004KT 10SM CLR 15/12 A3005 RMK AO2
KIZA 030515Z AUTO 23004KT 10SM CLR 15/12 A3005 RMK AO2
KIZA 030455Z AUTO 00000KT 10SM CLR 16/12 A3005 RMK AO2
KIZA 030435Z AUTO 25006KT 10SM CLR 16/12 A3005 RMK AO2
KIZA 030415Z AUTO 23005KT 10SM CLR 17/12 A3004 RMK AO2
KIZA 030355Z AUTO 23005KT 10SM CLR 17/12 A3003 RMK AO2
KIZA 030335Z AUTO 23004KT 10SM CLR 18/12 A3003 RMK AO2
KIZA 030315Z AUTO 26003KT 10SM CLR 19/12 A3003 RMK AO2
KIZA 030255Z AUTO 25005KT 10SM CLR 21/12 A3002 RMK AO2
KIZA 030235Z AUTO 24004KT 10SM CLR 22/12 A3002 RMK AO2
KIZA 030215Z AUTO 26007KT 10SM CLR 23/12 A3002 RMK AO2
KIZA 030155Z AUTO 24006KT 10SM CLR 24/12 A3002 RMK AO2
KIZA 030135Z AUTO 26009KT 10SM CLR 25/12 A3002 RMK AO2
KIZA 030115Z AUTO 26010KT 10SM CLR 26/13 A3002 RMK AO2
KIZA 030055Z AUTO 25010KT 10SM CLR 26/12 A3002 RMK AO2
KIZA 030035Z AUTO 24010KT 10SM CLR 27/13 A3001 RMK AO2
KIZA 030015Z AUTO 26008KT 10SM CLR 28/13 A3001 RMK AO2
KIZA 022355Z AUTO 26011KT 10SM CLR 29/12 A3001 RMK AO2
KIZA 022335Z AUTO 27010KT 10SM CLR 29/12 A3001 RMK AO2
KIZA 022315Z AUTO 28011KT 10SM CLR 30/13 A3001 RMK AO2
KIZA 022255Z AUTO 26011KT 10SM CLR 31/13 A3001 RMK AO2
KIZA 022235Z AUTO 27012KT 10SM CLR 31/12 A3001 RMK AO2
KIZA 022215Z AUTO 28010KT 10SM CLR 31/12 A3002 RMK AO2
KIZA 022155Z AUTO 26011KT 10SM CLR 32/12 A3002 RMK AO2
KIZA 022135Z AUTO 28009KT 10SM CLR 32/12 A3002 RMK AO2
KIZA 022115Z AUTO 26009KT 10SM CLR 32/12 A3002 RMK AO2
KIZA 022055Z AUTO 24007KT 10SM CLR 31/12 A3003 RMK AO2
KIZA 022035Z AUTO 25008KT 10SM CLR 31/13 A3004 RMK AO2
KIZA 022015Z AUTO 24006KT 10SM CLR 31/12 A3004 RMK AO2
KIZA 021955Z AUTO 24006KT 10SM CLR 30/12 A3005 RMK AO2
KIZA 021935Z AUTO 25006KT 10SM CLR 30/12 A3006 RMK AO2
KIZA 021915Z AUTO 22006KT 10SM CLR 28/12 A3006 RMK AO2
KIZA 021855Z AUTO 22004KT 10SM CLR 29/12 A3007 RMK AO2
KIZA 021835Z AUTO 24006KT 10SM CLR 27/11 A3007 RMK AO2
KIZA 021815Z AUTO 26003KT 10SM CLR 26/10 A3008 RMK AO2
KIZA 021755Z AUTO 24005KT 10SM CLR 24/11 A3008 RMK AO2
KIZA 021735Z AUTO 24003KT 10SM CLR 23/11 A3009 RMK AO2
KIZA 021715Z AUTO 00000KT 10SM CLR 21/11 A3009 RMK AO2
KIZA 021655Z AUTO 25003KT 10SM CLR 19/11 A3010 RMK AO2
KIZA 021635Z AUTO 22003KT 10SM CLR 18/11 A3010 RMK AO2
KIZA 021615Z AUTO 24003KT 10SM CLR 17/11 A3011 RMK AO2
KIZA 021555Z AUTO 00000KT 10SM CLR 16/11 A3011 RMK AO2
KIZA 021535Z AUTO 00000KT 10SM CLR 15/11 A3011 RMK AO2
KIZA 021515Z AUTO 00000KT 10SM CLR 15/10 A3011 RMK AO2
KIZA 021455Z AUTO 00000KT 10SM CLR 13/10 A3011 RMK AO2
KIZA 021435Z AUTO 00000KT 10SM CLR 12/10 A3011 RMK AO2
KIZA 021415Z AUTO 00000KT 10SM CLR 11/09 A3011 RMK AO2
KIZA 021355Z AUTO 00000KT 10SM CLR 10/08 A3011 RMK AO2
KIZA 021335Z AUTO 00000KT 10SM CLR 08/07 A3010 RMK AO2
KIZA 021315Z AUTO 00000KT 10SM CLR 09/08 A3010 RMK AO2
KIZA 021255Z AUTO 00000KT 10SM CLR 09/08 A3009 RMK AO2
KIZA 021235Z AUTO 00000KT 10SM CLR 10/08 A3009 RMK AO2
KIZA 021215Z AUTO 00000KT 10SM CLR 10/08 A3008 RMK AO2
KIZA 021155Z AUTO 00000KT 10SM CLR 10/08 A3008 RMK AO2
KIZA 021135Z AUTO 00000KT 10SM CLR 11/09 A3007 RMK AO2
KIZA 021115Z AUTO 00000KT 10SM CLR 10/09 A3007 RMK AO2
KIZA 021055Z AUTO 00000KT 10SM CLR 11/09 A3007 RMK AO2
KIZA 021035Z AUTO 00000KT 10SM CLR 11/10 A3007 RMK AO2
KIZA 021015Z AUTO 00000KT 10SM CLR 11/10 A3007 RMK AO2
KIZA 020955Z AUTO 00000KT 10SM CLR 11/10 A3007 RMK AO2
KIZA 020935Z AUTO 00000KT 10SM CLR 11/10 A3007 RMK AO2
KIZA 020915Z AUTO 00000KT 10SM CLR 11/10 A3007 RMK AO2
KIZA 020855Z AUTO 00000KT 10SM CLR 12/10 A3007 RMK AO2
KIZA 020835Z AUTO 00000KT 10SM CLR 12/10 A3007 RMK AO2
KIZA 020815Z AUTO 00000KT 10SM CLR 12/10 A3008 RMK AO2
KIZA 020755Z AUTO 00000KT 10SM CLR 13/10 A3007 RMK AO2
KIZA 020735Z AUTO 00000KT 10SM CLR 13/11 A3008 RMK AO2
KIZA 020715Z AUTO 00000KT 10SM CLR 13/10 A3008 RMK AO2
KIZA 020655Z AUTO 00000KT 10SM CLR 13/11 A3008 RMK AO2
KIZA 020635Z AUTO 00000KT 10SM CLR 14/11 A3009 RMK AO2
KIZA 020615Z AUTO 22003KT 10SM CLR 14/11 A3009 RMK AO2
KIZA 020555Z AUTO 24003KT 10SM CLR 15/11 A3010 RMK AO2
KIZA 020535Z AUTO 00000KT 10SM CLR 15/11 A3010 RMK AO2
KIZA 020515Z AUTO 24004KT 10SM CLR 16/11 A3010 RMK AO2
KIZA 020455Z AUTO 24004KT 10SM CLR 16/11 A3010 RMK AO2
KIZA 020435Z AUTO 25004KT 10SM CLR 16/11 A3009 RMK AO2
KIZA 020415Z AUTO 26005KT 10SM CLR 17/11 A3008 RMK AO2
KIZA 020355Z AUTO 26007KT 10SM CLR 17/12 A3007 RMK AO2
KIZA 020335Z AUTO 25005KT 10SM CLR 18/12 A3007 RMK AO2
KIZA 020315Z AUTO 23006KT 10SM CLR 19/12 A3007 RMK AO2
KIZA 020255Z AUTO 25006KT 10SM CLR 20/12 A3006 RMK AO2
KIZA 020235Z AUTO 24006KT 10SM CLR 21/12 A3006 RMK AO2
KIZA 020215Z AUTO 26006KT 10SM CLR 23/12 A3006 RMK AO2
KIZA 020155Z AUTO 24009KT 10SM CLR 23/12 A3005 RMK AO2
KIZA 020135Z AUTO 25009KT 10SM CLR 24/12 A3005 RMK AO2
KIZA 020115Z AUTO 26009KT 10SM CLR 25/12 A3005 RMK AO2
KIZA 020055Z AUTO 26010KT 10SM CLR 26/12 A3004 RMK AO2
KIZA 020035Z AUTO 26011KT 10SM CLR 27/12 A3004 RMK AO2
KIZA 020015Z AUTO 26012KT 10SM CLR 27/12 A3004 RMK AO2
KIZA 012355Z AUTO 26010KT 10SM CLR 28/12 A3004 RMK AO2
KIZA 012335Z AUTO 28012KT 10SM CLR 28/12 A3004 RMK AO2
KIZA 012315Z AUTO 27010KT 10SM CLR 30/12 A3004 RMK AO2
KIZA 012255Z AUTO 27011KT 10SM CLR 30/12 A3004 RMK AO2
KIZA 012235Z AUTO 28010KT 10SM CLR 30/12 A3005 RMK AO2
KIZA 012215Z AUTO 28011KT 10SM CLR 30/12 A3005 RMK AO2
KIZA 012155Z AUTO 27013KT 10SM CLR 30/12 A3005 RMK AO2
KIZA 012135Z AUTO 26013KT 10SM CLR 30/12 A3005 RMK AO2
KIZA 012115Z AUTO 26011KT 10SM CLR 30/12 A3005 RMK AO2
KIZA 012055Z AUTO 27012KT 10SM CLR 30/12 A3005 RMK AO2